createdAt,value
2023-12-05T00:00:53.486Z,1.18
2023-12-05T00:01:53.529Z,1.16
2023-12-05T00:02:53.482Z,1.06
2023-12-05T00:03:53.645Z,1.14
2023-12-05T00:04:53.634Z,0.98
2023-12-05T00:05:53.568Z,1.13
2023-12-05T00:06:53.683Z,1.02
2023-12-05T00:07:53.605Z,1.11
2023-12-05T00:08:53.626Z,1.08
2023-12-05T00:09:53.676Z,1.08
2023-12-05T00:10:53.677Z,0.99
2023-12-05T00:11:53.696Z,1.07
2023-12-05T00:12:53.765Z,1.08
2023-12-05T00:13:53.747Z,1.02
2023-12-05T00:14:53.759Z,0.98
2023-12-05T00:15:53.825Z,1.00
2023-12-05T00:16:53.806Z,1.00
2023-12-05T00:17:53.846Z,1.04
2023-12-05T00:18:53.981Z,1.08
2023-12-05T00:19:53.876Z,1.11
2023-12-05T00:20:53.904Z,1.10
2023-12-05T00:21:53.957Z,1.13
2023-12-05T00:22:53.962Z,1.08
2023-12-05T00:23:53.969Z,1.11
2023-12-05T00:24:54.031Z,1.11
2023-12-05T00:25:54.018Z,1.08
2023-12-05T00:26:54.046Z,1.07
2023-12-05T00:27:54.186Z,1.08
2023-12-05T00:28:54.087Z,1.18
2023-12-05T00:29:54.111Z,1.13
2023-12-05T00:30:54.181Z,1.17
2023-12-05T00:31:54.153Z,1.11
2023-12-05T00:32:54.197Z,1.02
2023-12-05T00:33:54.334Z,1.06
2023-12-05T00:34:54.222Z,1.10
2023-12-05T00:35:54.248Z,1.11
2023-12-05T00:36:54.325Z,1.10
2023-12-05T00:37:54.319Z,1.07
2023-12-05T00:38:54.320Z,1.10
2023-12-05T00:39:54.400Z,1.16
2023-12-05T00:40:54.370Z,1.00
2023-12-05T00:41:54.387Z,1.14
2023-12-05T00:42:54.445Z,1.16
2023-12-05T00:43:54.438Z,1.10
2023-12-05T00:44:54.468Z,1.11
2023-12-05T00:45:54.520Z,1.17
2023-12-05T00:46:54.498Z,1.00
2023-12-05T00:47:54.616Z,1.10
2023-12-05T00:48:54.604Z,1.11
2023-12-05T00:49:54.571Z,1.13
2023-12-05T00:50:54.601Z,1.18
2023-12-05T00:51:54.684Z,1.14
2023-12-05T00:52:54.649Z,1.08
2023-12-05T00:53:54.666Z,1.14
2023-12-05T00:54:54.695Z,1.06
2023-12-05T00:55:54.720Z,1.10
2023-12-05T00:56:54.732Z,1.07
2023-12-05T00:57:54.799Z,1.18
2023-12-05T00:58:54.782Z,1.13
2023-12-05T00:59:54.805Z,1.10
2023-12-05T01:00:54.872Z,1.04
2023-12-05T01:01:54.866Z,1.08
2023-12-05T01:02:54.870Z,1.06
2023-12-05T01:03:54.997Z,1.02
2023-12-05T01:04:55.057Z,1.14
2023-12-05T01:05:54.984Z,1.11
2023-12-05T01:06:55.009Z,1.18
2023-12-05T01:07:54.989Z,1.17
2023-12-05T01:08:55.015Z,1.07
2023-12-05T01:09:55.107Z,1.06
2023-12-05T01:10:55.060Z,1.13
2023-12-05T01:11:55.080Z,1.06
2023-12-05T01:12:55.106Z,1.06
2023-12-05T01:13:55.137Z,1.20
2023-12-05T01:14:55.159Z,1.11
2023-12-05T01:15:55.232Z,1.18
2023-12-05T01:16:55.202Z,1.06
2023-12-05T01:17:55.365Z,1.14
2023-12-05T01:18:55.293Z,1.18
2023-12-05T01:19:55.277Z,1.13
2023-12-05T01:20:55.296Z,1.16
2023-12-05T01:21:55.327Z,1.11
2023-12-05T01:22:55.354Z,1.17
2023-12-05T01:23:55.377Z,1.10
2023-12-05T01:24:55.383Z,1.20
2023-12-05T01:25:55.406Z,1.13
2023-12-05T01:26:55.459Z,1.14
2023-12-05T01:27:55.515Z,1.10
2023-12-05T01:28:55.485Z,1.17
2023-12-05T01:29:55.501Z,1.17
2023-12-05T01:30:55.567Z,1.20
2023-12-05T01:31:55.556Z,1.25
2023-12-05T01:32:55.599Z,1.28
2023-12-05T01:33:55.662Z,1.13
2023-12-05T01:34:55.623Z,1.04
2023-12-05T01:35:55.643Z,1.17
2023-12-05T01:36:55.758Z,1.14
2023-12-05T01:37:55.688Z,1.11
2023-12-05T01:38:55.707Z,1.16
2023-12-05T01:39:55.840Z,1.21
2023-12-05T01:40:55.764Z,1.25
2023-12-05T01:41:55.776Z,1.24
2023-12-05T01:42:55.840Z,1.28
2023-12-05T01:43:55.826Z,1.25
2023-12-05T01:44:55.845Z,1.16
2023-12-05T01:45:55.905Z,1.16
2023-12-05T01:46:55.897Z,1.16
2023-12-05T01:47:55.986Z,1.16
2023-12-05T01:48:56.042Z,1.18
2023-12-05T01:49:56.106Z,1.34
2023-12-05T01:50:55.985Z,1.26
2023-12-05T01:51:56.042Z,1.26
2023-12-05T01:52:56.046Z,1.25
2023-12-05T01:53:56.065Z,1.29
2023-12-05T01:54:56.100Z,1.24
2023-12-05T01:55:56.110Z,1.14
2023-12-05T01:56:56.124Z,1.13
2023-12-05T01:57:56.243Z,1.10
2023-12-05T01:58:56.171Z,1.13
2023-12-05T01:59:56.194Z,1.16
2023-12-05T02:00:57.618Z,1.14
2023-12-05T02:01:56.296Z,1.34
2023-12-05T02:02:56.312Z,1.36
2023-12-05T02:03:56.352Z,1.21
2023-12-05T02:04:56.445Z,1.36
2023-12-05T02:05:56.361Z,1.25
2023-12-05T02:06:56.364Z,1.29
2023-12-05T02:07:56.392Z,1.24
2023-12-05T02:08:56.403Z,1.32
2023-12-05T02:09:56.427Z,1.24
2023-12-05T02:10:56.490Z,1.29
2023-12-05T02:11:56.472Z,1.34
2023-12-05T02:12:56.494Z,1.32
2023-12-05T02:13:56.526Z,1.28
2023-12-05T02:14:56.551Z,1.25
2023-12-05T02:15:56.566Z,1.32
2023-12-05T02:16:56.585Z,1.34
2023-12-05T02:17:56.700Z,1.25
2023-12-05T02:18:56.728Z,1.31
2023-12-05T02:19:56.660Z,1.35
2023-12-05T02:20:56.701Z,1.24
2023-12-05T02:21:56.701Z,1.26
2023-12-05T02:22:56.724Z,1.25
2023-12-05T02:23:56.764Z,1.28
2023-12-05T02:24:56.773Z,1.25
2023-12-05T02:25:56.817Z,1.32
2023-12-05T02:26:56.822Z,1.39
2023-12-05T02:27:56.834Z,1.29
2023-12-05T02:28:56.866Z,1.36
2023-12-05T02:29:56.883Z,1.39
2023-12-05T02:30:56.963Z,1.47
2023-12-05T02:31:56.960Z,1.46
2023-12-05T02:32:56.986Z,1.43
2023-12-05T02:33:57.087Z,1.29
2023-12-05T02:34:57.000Z,1.47
2023-12-05T02:35:57.017Z,1.36
2023-12-05T02:36:57.114Z,1.31
2023-12-05T02:37:57.065Z,1.32
2023-12-05T02:38:57.089Z,1.35
2023-12-05T02:39:57.113Z,1.44
2023-12-05T02:40:57.141Z,1.13
2023-12-05T02:41:57.176Z,1.31
2023-12-05T02:42:57.204Z,1.31
2023-12-05T02:43:57.207Z,1.26
2023-12-05T02:44:57.238Z,1.25
2023-12-05T02:46:08.509Z,1.29
2023-12-05T02:46:57.273Z,1.25
2023-12-05T02:47:57.447Z,1.29
2023-12-05T02:48:57.423Z,1.32
2023-12-05T02:49:57.344Z,1.31
2023-12-05T02:50:57.369Z,1.32
2023-12-05T02:51:57.428Z,1.32
2023-12-05T02:52:57.436Z,1.31
2023-12-05T02:53:57.437Z,1.31
2023-12-05T02:54:57.503Z,1.34
2023-12-05T02:55:57.487Z,1.43
2023-12-05T02:56:57.510Z,1.42
2023-12-05T02:57:57.565Z,1.46
2023-12-05T02:58:57.555Z,1.39
2023-12-05T02:59:57.607Z,1.36
2023-12-05T03:00:57.664Z,1.39
2023-12-05T03:01:57.707Z,1.31
2023-12-05T03:02:57.647Z,1.36
2023-12-05T03:03:57.775Z,1.36
2023-12-05T03:04:57.763Z,1.39
2023-12-05T03:05:57.781Z,1.38
2023-12-05T03:06:57.809Z,1.39
2023-12-05T03:07:57.781Z,1.32
2023-12-05T03:08:59.719Z,1.31
2023-12-05T03:09:57.833Z,1.49
2023-12-05T03:11:03.499Z,1.42
2023-12-05T03:11:57.859Z,1.36
2023-12-05T03:12:57.878Z,1.29
2023-12-05T03:13:57.904Z,1.42
2023-12-05T03:14:57.929Z,1.32
2023-12-05T03:15:57.963Z,1.34
2023-12-05T03:16:58.028Z,1.29
2023-12-05T03:17:58.071Z,1.26
2023-12-05T03:18:58.201Z,1.32
2023-12-05T03:19:58.044Z,1.35
2023-12-05T03:20:58.071Z,1.32
2023-12-05T03:21:58.148Z,1.34
2023-12-05T03:22:58.126Z,1.36
2023-12-05T03:23:58.142Z,1.43
2023-12-05T03:24:58.218Z,1.43
2023-12-05T03:25:58.182Z,1.38
2023-12-05T03:26:58.209Z,1.38
2023-12-05T03:27:58.229Z,1.39
2023-12-05T03:28:58.261Z,1.38
2023-12-05T03:29:58.274Z,1.47
2023-12-05T03:30:58.327Z,1.46
2023-12-05T03:31:58.323Z,1.44
2023-12-05T03:32:58.384Z,1.38
2023-12-05T03:33:58.439Z,1.39
2023-12-05T03:34:58.400Z,1.34
2023-12-05T03:35:58.416Z,1.29
2023-12-05T03:36:58.525Z,1.34
2023-12-05T03:37:58.470Z,1.39
2023-12-05T03:38:58.513Z,1.34
2023-12-05T03:39:58.568Z,1.46
2023-12-05T03:40:58.585Z,1.46
2023-12-05T03:41:58.581Z,1.39
2023-12-05T03:42:58.608Z,1.35
2023-12-05T03:43:58.640Z,1.36
2023-12-05T03:44:58.640Z,1.38
2023-12-05T03:45:58.715Z,1.34
2023-12-05T03:46:58.682Z,1.36
2023-12-05T03:47:58.764Z,1.44
2023-12-05T03:48:58.845Z,1.46
2023-12-05T03:49:58.765Z,1.42
2023-12-05T03:50:58.779Z,1.39
2023-12-05T03:51:58.782Z,1.38
2023-12-05T03:52:58.818Z,1.39
2023-12-05T03:53:58.841Z,1.35
2023-12-05T03:54:58.855Z,1.21
2023-12-05T03:55:58.891Z,1.28
2023-12-05T03:56:58.904Z,1.29
2023-12-05T03:57:58.924Z,1.32
2023-12-05T03:58:58.962Z,1.31
2023-12-05T03:59:58.973Z,1.32
2023-12-05T04:00:59.029Z,1.32
2023-12-05T04:01:59.042Z,1.20
2023-12-05T04:02:59.045Z,1.11
2023-12-05T04:03:59.145Z,1.26
2023-12-05T04:04:59.165Z,1.21
2023-12-05T04:05:59.127Z,1.17
2023-12-05T04:06:59.166Z,1.26
2023-12-05T04:07:59.158Z,1.21
2023-12-05T04:08:59.181Z,1.24
2023-12-05T04:09:59.206Z,1.29
2023-12-05T04:10:59.235Z,1.24
2023-12-05T04:11:59.252Z,1.24
2023-12-05T04:12:59.341Z,1.18
2023-12-05T04:13:59.322Z,1.24
2023-12-05T04:14:59.333Z,1.28
2023-12-05T04:15:59.344Z,1.25
2023-12-05T04:16:59.367Z,1.26
2023-12-05T04:17:59.472Z,1.25
2023-12-05T04:18:59.533Z,1.29
2023-12-05T04:19:59.440Z,1.25
2023-12-05T04:20:59.485Z,1.29
2023-12-05T04:21:59.510Z,1.36
2023-12-05T04:22:59.511Z,1.35
2023-12-05T04:23:59.529Z,1.35
2023-12-05T04:24:59.569Z,1.42
2023-12-05T04:25:59.569Z,1.39
2023-12-05T04:26:59.607Z,1.43
2023-12-05T04:27:59.623Z,1.43
2023-12-05T04:28:59.652Z,1.42
2023-12-05T04:29:59.669Z,1.44
2023-12-05T04:30:59.710Z,1.49
2023-12-05T04:31:59.713Z,1.46
2023-12-05T04:32:59.764Z,1.44
2023-12-05T04:33:59.795Z,1.42
2023-12-05T04:34:59.787Z,1.42
2023-12-05T04:35:59.805Z,1.42
2023-12-05T04:36:59.838Z,1.49
2023-12-05T04:37:59.850Z,1.39
2023-12-05T04:38:59.916Z,1.36
2023-12-05T04:39:59.899Z,1.39
2023-12-05T04:40:59.928Z,1.43
2023-12-05T04:41:59.956Z,1.47
2023-12-05T04:42:59.971Z,1.53
2023-12-05T04:43:59.991Z,1.50
2023-12-05T04:45:00.023Z,1.49
2023-12-05T04:46:00.071Z,1.54
2023-12-05T04:47:00.073Z,1.42
2023-12-05T04:48:00.210Z,1.53
2023-12-05T04:49:00.246Z,1.52
2023-12-05T04:50:00.211Z,1.53
2023-12-05T04:51:00.208Z,1.43
2023-12-05T04:52:00.410Z,1.53
2023-12-05T04:53:00.196Z,1.50
2023-12-05T04:54:00.245Z,1.44
2023-12-05T04:55:00.288Z,1.52
2023-12-05T04:56:00.272Z,1.43
2023-12-05T04:57:00.308Z,1.44
2023-12-05T04:58:00.406Z,1.47
2023-12-05T04:59:00.344Z,1.31
2023-12-05T05:00:00.361Z,1.39
2023-12-05T05:01:00.468Z,1.49
2023-12-05T05:02:00.503Z,1.43
2023-12-05T05:03:00.505Z,1.46
2023-12-05T05:04:02.637Z,1.42
2023-12-05T05:05:00.603Z,1.43
2023-12-05T05:06:00.546Z,1.44
2023-12-05T05:07:00.593Z,1.39
2023-12-05T05:08:00.556Z,1.38
2023-12-05T05:09:00.578Z,1.43
2023-12-05T05:10:00.731Z,1.47
2023-12-05T05:11:00.623Z,1.42
2023-12-05T05:12:00.640Z,1.44
2023-12-05T05:13:00.684Z,1.50
2023-12-05T05:14:02.164Z,1.47
2023-12-05T05:15:00.718Z,1.57
2023-12-05T05:16:00.836Z,1.46
2023-12-05T05:17:00.766Z,1.46
2023-12-05T05:18:00.839Z,1.60
2023-12-05T05:19:00.909Z,1.52
2023-12-05T05:20:00.851Z,1.50
2023-12-05T05:21:00.854Z,1.53
2023-12-05T05:22:00.903Z,1.54
2023-12-05T05:23:00.908Z,1.60
2023-12-05T05:24:00.958Z,1.56
2023-12-05T05:25:01.082Z,1.57
2023-12-05T05:26:00.983Z,1.63
2023-12-05T05:27:00.994Z,1.63
2023-12-05T05:28:01.019Z,1.60
2023-12-05T05:29:01.040Z,1.63
2023-12-05T05:30:01.070Z,1.56
2023-12-05T05:31:01.088Z,1.50
2023-12-05T05:32:01.120Z,1.54
2023-12-05T05:33:01.295Z,1.49
2023-12-05T05:34:01.288Z,1.56
2023-12-05T05:35:01.177Z,1.63
2023-12-05T05:36:01.200Z,1.50
2023-12-05T05:37:01.246Z,1.61
2023-12-05T05:38:01.258Z,1.60
2023-12-05T05:39:01.272Z,1.63
2023-12-05T05:40:01.331Z,1.61
2023-12-05T05:41:01.323Z,1.71
2023-12-05T05:42:01.341Z,1.67
2023-12-05T05:43:01.408Z,1.60
2023-12-05T05:44:01.388Z,1.70
2023-12-05T05:45:01.412Z,1.68
2023-12-05T05:46:01.461Z,1.70
2023-12-05T05:47:01.461Z,1.70
2023-12-05T05:48:01.528Z,1.72
2023-12-05T05:49:01.575Z,1.72
2023-12-05T05:51:01.556Z,1.71
2023-12-05T05:52:01.579Z,1.70
2023-12-05T05:53:01.597Z,1.71
2023-12-05T05:54:01.622Z,1.70
2023-12-05T05:55:01.657Z,1.70
2023-12-05T05:56:01.662Z,1.75
2023-12-05T05:57:01.695Z,1.79
2023-12-05T05:58:01.710Z,1.70
2023-12-05T05:59:01.739Z,1.72
2023-12-05T06:00:01.771Z,1.74
2023-12-05T06:01:01.796Z,1.71
2023-12-05T06:02:01.836Z,1.70
2023-12-05T06:03:01.844Z,1.72
2023-12-05T06:04:01.963Z,1.82
2023-12-05T06:05:02.006Z,1.86
2023-12-05T06:06:02.152Z,1.86
2023-12-05T06:07:01.964Z,1.81
2023-12-05T06:08:01.950Z,1.83
2023-12-05T06:09:01.980Z,1.81
2023-12-05T06:10:01.997Z,1.82
2023-12-05T06:11:02.024Z,1.83
2023-12-05T06:12:02.045Z,1.81
2023-12-05T06:13:02.066Z,1.81
2023-12-05T06:14:02.092Z,1.83
2023-12-05T06:15:02.149Z,1.82
2023-12-05T06:16:02.136Z,1.77
2023-12-05T06:17:02.161Z,1.82
2023-12-05T06:18:02.226Z,1.83
2023-12-05T06:19:02.242Z,1.75
2023-12-05T06:20:02.230Z,1.82
2023-12-05T06:21:02.265Z,1.79
2023-12-05T06:22:02.274Z,1.85
2023-12-05T06:23:02.312Z,1.89
2023-12-05T06:24:02.757Z,1.81
2023-12-05T06:25:02.360Z,1.85
2023-12-05T06:26:02.366Z,1.82
2023-12-05T06:27:02.403Z,1.79
2023-12-05T06:28:02.421Z,1.77
2023-12-05T06:29:02.444Z,1.81
2023-12-05T06:30:12.789Z,1.93
2023-12-05T06:31:02.527Z,1.90
2023-12-05T06:32:02.518Z,1.88
2023-12-05T06:33:02.582Z,1.93
2023-12-05T06:34:02.612Z,1.82
2023-12-05T06:35:02.595Z,1.93
2023-12-05T06:36:02.622Z,1.83
2023-12-05T06:37:02.644Z,1.79
2023-12-05T06:38:02.653Z,1.81
2023-12-05T06:39:02.677Z,1.81
2023-12-05T06:40:02.705Z,1.79
2023-12-05T06:41:02.728Z,1.82
2023-12-05T06:42:02.748Z,1.79
2023-12-05T06:43:02.777Z,1.75
2023-12-05T06:44:02.794Z,1.82
2023-12-05T06:45:02.819Z,1.81
2023-12-05T06:46:02.843Z,1.82
2023-12-05T06:47:02.863Z,1.77
2023-12-05T06:48:04.636Z,1.85
2023-12-05T06:49:02.962Z,1.82
2023-12-05T06:50:03.142Z,1.81
2023-12-05T06:51:02.966Z,1.81
2023-12-05T06:52:02.982Z,1.79
2023-12-05T06:53:03.014Z,1.79
2023-12-05T06:54:03.054Z,1.81
2023-12-05T06:55:03.050Z,1.82
2023-12-05T06:56:03.077Z,1.79
2023-12-05T06:57:03.107Z,1.79
2023-12-05T06:58:03.135Z,1.83
2023-12-05T06:59:03.147Z,1.85
2023-12-05T07:00:03.170Z,1.90
2023-12-05T07:01:03.202Z,1.98
2023-12-05T07:02:03.244Z,1.93
2023-12-05T07:03:03.266Z,2.00
2023-12-05T07:04:03.382Z,2.05
2023-12-05T07:05:03.521Z,2.05
2023-12-05T07:06:03.372Z,2.08
2023-12-05T07:07:03.437Z,2.18
2023-12-05T07:08:03.359Z,2.11
2023-12-05T07:09:03.384Z,2.08
2023-12-05T07:10:03.414Z,2.07
2023-12-05T07:11:03.461Z,2.01
2023-12-05T07:12:03.455Z,1.95
2023-12-05T07:13:03.545Z,2.01
2023-12-05T07:14:03.536Z,2.05
2023-12-05T07:15:03.530Z,2.05
2023-12-05T07:16:03.549Z,1.89
2023-12-05T07:17:03.683Z,1.98
2023-12-05T07:18:03.709Z,1.92
2023-12-05T07:19:03.728Z,2.01
2023-12-05T07:20:03.658Z,1.95
2023-12-05T07:21:03.668Z,2.05
2023-12-05T07:22:03.690Z,2.04
2023-12-05T07:23:03.718Z,2.08
2023-12-05T07:24:03.762Z,2.02
2023-12-05T07:25:03.769Z,1.98
2023-12-05T07:26:03.787Z,1.92
2023-12-05T07:27:03.830Z,2.02
2023-12-05T07:28:03.834Z,1.93
2023-12-05T07:29:03.866Z,2.02
2023-12-05T07:30:03.878Z,1.98
2023-12-05T07:31:03.954Z,2.05
2023-12-05T07:32:03.990Z,2.05
2023-12-05T07:33:04.089Z,2.04
2023-12-05T07:34:04.062Z,2.04
2023-12-05T07:35:04.069Z,2.08
2023-12-05T07:36:04.023Z,2.02
2023-12-05T07:37:04.064Z,2.08
2023-12-05T07:38:04.067Z,2.07
2023-12-05T07:39:04.093Z,2.02
2023-12-05T07:40:04.124Z,1.98
2023-12-05T07:41:04.144Z,1.92
2023-12-05T07:42:04.163Z,1.92
2023-12-05T07:43:04.193Z,1.88
2023-12-05T07:44:04.211Z,1.89
2023-12-05T07:45:04.244Z,1.92
2023-12-05T07:46:05.184Z,1.89
2023-12-05T07:47:04.287Z,1.92
2023-12-05T07:48:04.401Z,1.89
2023-12-05T07:49:04.471Z,1.93
2023-12-05T07:50:04.354Z,1.85
2023-12-05T07:51:04.380Z,1.89
2023-12-05T07:52:04.466Z,1.92
2023-12-05T07:53:04.432Z,1.95
2023-12-05T07:54:04.448Z,1.92
2023-12-05T07:55:04.475Z,1.92
2023-12-05T07:56:04.494Z,1.88
2023-12-05T07:57:04.524Z,1.93
2023-12-05T07:58:04.553Z,1.90
2023-12-05T07:59:04.585Z,1.92
2023-12-05T08:00:04.598Z,1.89
2023-12-05T08:01:04.614Z,1.92
2023-12-05T08:02:06.885Z,2.00
2023-12-05T08:03:04.722Z,2.01
2023-12-05T08:04:04.777Z,1.95
2023-12-05T08:05:04.797Z,1.92
2023-12-05T08:06:04.802Z,1.93
2023-12-05T08:07:04.754Z,2.04
2023-12-05T08:08:04.777Z,1.89
2023-12-05T08:09:04.809Z,1.88
2023-12-05T08:10:04.824Z,1.89
2023-12-05T08:11:04.844Z,1.95
2023-12-05T08:12:04.873Z,1.93
2023-12-05T08:13:04.918Z,1.92
2023-12-05T08:14:04.916Z,1.98
2023-12-05T08:15:04.946Z,1.90
2023-12-05T08:16:05.000Z,2.00
2023-12-05T08:17:05.018Z,1.95
2023-12-05T08:18:05.070Z,1.92
2023-12-05T08:19:05.096Z,1.92
2023-12-05T08:20:05.070Z,2.01
2023-12-05T08:21:05.080Z,2.07
2023-12-05T08:22:05.115Z,2.22
2023-12-05T08:23:05.128Z,2.14
2023-12-05T08:24:05.157Z,2.02
2023-12-05T08:25:05.176Z,2.05
2023-12-05T08:26:05.198Z,2.07
2023-12-05T08:27:05.233Z,2.01
2023-12-05T08:28:05.245Z,1.92
2023-12-05T08:29:05.265Z,1.98
2023-12-05T08:30:05.308Z,1.92
2023-12-05T08:31:05.314Z,1.98
2023-12-05T08:32:05.340Z,1.88
2023-12-05T08:33:05.390Z,1.90
2023-12-05T08:34:05.553Z,1.90
2023-12-05T08:35:05.540Z,2.01
2023-12-05T08:36:05.438Z,2.07
2023-12-05T08:37:05.489Z,2.04
2023-12-05T08:38:05.490Z,2.20
2023-12-05T08:39:05.512Z,2.11
2023-12-05T08:40:05.531Z,2.07
2023-12-05T08:41:05.578Z,2.07
2023-12-05T08:42:05.571Z,2.08
2023-12-05T08:43:05.624Z,2.07
2023-12-05T08:44:05.638Z,1.98
2023-12-05T08:45:05.650Z,2.02
2023-12-05T08:46:08.392Z,2.14
2023-12-05T08:47:05.700Z,2.12
2023-12-05T08:48:05.762Z,2.12
2023-12-05T08:49:05.910Z,2.23
2023-12-05T08:50:05.769Z,2.20
2023-12-05T08:51:05.787Z,2.18
2023-12-05T08:52:05.811Z,2.27
2023-12-05T08:53:05.834Z,2.25
2023-12-05T08:54:05.855Z,2.32
2023-12-05T08:55:05.880Z,2.23
2023-12-05T08:56:05.922Z,2.20
2023-12-05T08:57:05.928Z,2.23
2023-12-05T08:58:05.959Z,2.18
2023-12-05T08:59:05.983Z,2.22
2023-12-05T09:00:05.999Z,2.29
2023-12-05T09:01:06.028Z,2.30
2023-12-05T09:02:06.098Z,2.30
2023-12-05T09:03:06.110Z,2.36
2023-12-05T09:04:06.204Z,2.44
2023-12-05T09:05:06.295Z,2.32
2023-12-05T09:06:06.159Z,2.45
2023-12-05T09:07:06.229Z,2.51
2023-12-05T09:08:06.395Z,2.43
2023-12-05T09:09:06.215Z,2.38
2023-12-05T09:10:06.248Z,2.32
2023-12-05T09:11:06.273Z,2.45
2023-12-05T09:12:06.287Z,2.43
2023-12-05T09:13:06.313Z,2.55
2023-12-05T09:14:06.334Z,2.55
2023-12-05T09:15:06.354Z,2.48
2023-12-05T09:16:06.406Z,2.51
2023-12-05T09:17:06.413Z,2.63
2023-12-05T09:18:06.519Z,2.65
2023-12-05T09:19:06.514Z,2.65
2023-12-05T09:20:06.481Z,2.69
2023-12-05T09:21:06.505Z,2.71
2023-12-05T09:22:06.535Z,2.74
2023-12-05T09:23:06.552Z,2.79
2023-12-05T09:24:06.575Z,2.74
2023-12-05T09:25:06.596Z,2.71
2023-12-05T09:26:06.635Z,2.71
2023-12-05T09:27:06.638Z,2.80
2023-12-05T09:28:06.672Z,2.80
2023-12-05T09:29:06.695Z,2.77
2023-12-05T09:30:06.720Z,2.66
2023-12-05T09:31:06.752Z,2.83
2023-12-05T09:32:06.774Z,2.83
2023-12-05T09:33:06.889Z,2.92
2023-12-05T09:34:06.874Z,2.95
2023-12-05T09:35:06.906Z,2.99
2023-12-05T09:36:06.885Z,3.02
2023-12-05T09:37:08.021Z,3.01
2023-12-05T09:38:06.909Z,3.02
2023-12-05T09:39:06.985Z,3.08
2023-12-05T09:40:06.984Z,3.13
2023-12-05T09:41:07.067Z,3.12
2023-12-05T09:42:07.032Z,3.08
2023-12-05T09:43:07.071Z,3.10
2023-12-05T09:44:07.104Z,3.07
2023-12-05T09:45:07.221Z,3.12
2023-12-05T09:46:07.120Z,3.13
2023-12-05T09:47:07.123Z,3.12
2023-12-05T09:48:07.339Z,3.12
2023-12-05T09:49:07.465Z,3.07
2023-12-05T09:50:07.305Z,3.13
2023-12-05T09:51:07.224Z,3.13
2023-12-05T09:52:07.256Z,3.23
2023-12-05T09:53:07.272Z,3.22
2023-12-05T09:54:07.519Z,3.19
2023-12-05T09:55:07.336Z,3.08
2023-12-05T09:56:07.351Z,3.08
2023-12-05T09:57:07.370Z,3.20
2023-12-05T09:58:07.437Z,3.12
2023-12-05T09:59:07.437Z,3.15
2023-12-05T10:00:07.549Z,3.12
2023-12-05T10:01:07.503Z,3.16
2023-12-05T10:02:07.579Z,3.19
2023-12-05T10:03:07.587Z,3.19
2023-12-05T10:04:07.638Z,3.25
2023-12-05T10:05:07.657Z,3.20
2023-12-05T10:06:07.634Z,3.22
2023-12-05T10:07:07.664Z,3.25
2023-12-05T10:08:07.636Z,3.26
2023-12-05T10:09:07.668Z,3.23
2023-12-05T10:10:07.710Z,3.26
2023-12-05T10:11:07.718Z,3.16
2023-12-05T10:12:07.734Z,3.30
2023-12-05T10:13:07.856Z,3.35
2023-12-05T10:14:07.797Z,3.26
2023-12-05T10:15:07.812Z,3.26
2023-12-05T10:16:07.832Z,3.23
2023-12-05T10:17:07.863Z,3.20
2023-12-05T10:18:08.038Z,3.22
2023-12-05T10:19:08.011Z,3.22
2023-12-05T10:20:08.007Z,3.19
2023-12-05T10:21:07.979Z,3.22
2023-12-05T10:22:07.978Z,3.10
2023-12-05T10:23:08.008Z,3.16
2023-12-05T10:24:08.028Z,3.08
2023-12-05T10:25:08.059Z,3.15
2023-12-05T10:26:08.081Z,3.15
2023-12-05T10:27:08.100Z,3.12
2023-12-05T10:28:08.888Z,3.12
2023-12-05T10:29:08.152Z,3.15
2023-12-05T10:30:08.208Z,3.12
2023-12-05T10:31:08.206Z,3.07
2023-12-05T10:32:08.224Z,3.13
2023-12-05T10:33:08.299Z,3.07
2023-12-05T10:34:08.340Z,3.12
2023-12-05T10:35:08.306Z,3.15
2023-12-05T10:36:08.321Z,3.13
2023-12-05T10:37:08.348Z,3.08
2023-12-05T10:38:08.585Z,3.19
2023-12-05T10:39:08.404Z,3.19
2023-12-05T10:40:08.420Z,3.16
2023-12-05T10:41:08.448Z,3.04
2023-12-05T10:42:08.477Z,3.22
2023-12-05T10:43:08.494Z,3.25
2023-12-05T10:44:08.519Z,3.20
2023-12-05T10:45:08.581Z,3.08
2023-12-05T10:46:08.566Z,3.12
2023-12-05T10:47:08.584Z,3.10
2023-12-05T10:48:08.688Z,3.07
2023-12-05T10:49:08.710Z,3.26
2023-12-05T10:50:08.659Z,3.23
2023-12-05T10:51:08.688Z,3.17
2023-12-05T10:52:08.716Z,3.25
2023-12-05T10:53:08.750Z,3.31
2023-12-05T10:54:08.762Z,3.26
2023-12-05T10:55:08.825Z,3.22
2023-12-05T10:56:08.816Z,3.19
2023-12-05T10:57:08.839Z,3.15
2023-12-05T10:58:08.865Z,3.16
2023-12-05T10:59:08.884Z,3.08
2023-12-05T11:00:08.920Z,3.08
2023-12-05T11:01:08.997Z,3.05
2023-12-05T11:02:08.974Z,3.15
2023-12-05T11:03:08.991Z,3.26
2023-12-05T11:04:09.139Z,3.26
2023-12-05T11:05:09.030Z,3.30
2023-12-05T11:06:09.136Z,3.34
2023-12-05T11:07:09.205Z,3.30
2023-12-05T11:08:09.113Z,3.30
2023-12-05T11:09:09.139Z,3.25
2023-12-05T11:10:09.192Z,3.25
2023-12-05T11:11:09.179Z,3.26
2023-12-05T11:12:09.213Z,3.16
2023-12-05T11:13:09.227Z,3.26
2023-12-05T11:14:09.249Z,3.23
2023-12-05T11:15:09.272Z,3.34
2023-12-05T11:16:09.337Z,3.35
2023-12-05T11:17:09.321Z,3.26
2023-12-05T11:18:09.380Z,3.23
2023-12-05T11:19:09.470Z,3.30
2023-12-05T11:20:09.414Z,3.20
2023-12-05T11:21:09.420Z,3.33
2023-12-05T11:22:09.446Z,3.37
2023-12-05T11:23:09.471Z,3.22
2023-12-05T11:24:09.493Z,3.22
2023-12-05T11:25:09.519Z,3.08
2023-12-05T11:26:09.549Z,3.20
2023-12-05T11:27:09.567Z,3.23
2023-12-05T11:28:09.601Z,3.23
2023-12-05T11:29:09.625Z,3.25
2023-12-05T11:30:09.637Z,3.33
2023-12-05T11:31:09.723Z,3.30
2023-12-05T11:32:09.707Z,3.34
2023-12-05T11:33:09.773Z,3.22
2023-12-05T11:34:10.040Z,3.31
2023-12-05T11:35:10.105Z,3.23
2023-12-05T11:36:09.791Z,3.25
2023-12-05T11:37:09.874Z,3.26
2023-12-05T11:38:09.846Z,3.17
2023-12-05T11:39:09.871Z,3.25
2023-12-05T11:40:09.887Z,3.31
2023-12-05T11:41:09.911Z,3.30
2023-12-05T11:42:09.943Z,3.33
2023-12-05T11:43:09.994Z,3.31
2023-12-05T11:44:09.984Z,3.33
2023-12-05T11:45:10.007Z,3.45
2023-12-05T11:46:10.037Z,3.44
2023-12-05T11:47:10.062Z,3.44
2023-12-05T11:48:12.050Z,3.50
2023-12-05T11:49:10.184Z,3.49
2023-12-05T11:50:10.131Z,3.46
2023-12-05T11:51:10.179Z,3.50
2023-12-05T11:52:10.205Z,3.44
2023-12-05T11:53:10.208Z,3.42
2023-12-05T11:54:10.228Z,3.53
2023-12-05T11:55:10.390Z,3.54
2023-12-05T11:56:10.279Z,3.57
2023-12-05T11:57:11.408Z,3.45
2023-12-05T11:58:10.331Z,3.53
2023-12-05T11:59:10.353Z,3.57
2023-12-05T12:00:10.378Z,3.50
2023-12-05T12:01:10.516Z,3.60
2023-12-05T12:02:10.628Z,3.63
2023-12-05T12:03:10.498Z,3.70
2023-12-05T12:04:10.528Z,3.70
2023-12-05T12:05:10.585Z,3.71
2023-12-05T12:06:10.526Z,3.81
2023-12-05T12:07:10.696Z,3.95
2023-12-05T12:08:10.575Z,3.90
2023-12-05T12:09:10.596Z,3.82
2023-12-05T12:10:10.622Z,3.72
2023-12-05T12:11:10.664Z,3.71
2023-12-05T12:12:11.043Z,3.72
2023-12-05T12:13:10.779Z,3.86
2023-12-05T12:14:10.728Z,3.75
2023-12-05T12:15:10.750Z,3.75
2023-12-05T12:16:10.776Z,3.72
2023-12-05T12:17:10.822Z,3.70
2023-12-05T12:18:10.965Z,3.71
2023-12-05T12:19:10.925Z,3.80
2023-12-05T12:20:10.996Z,3.70
2023-12-05T12:21:10.910Z,3.68
2023-12-05T12:22:10.924Z,3.80
2023-12-05T12:23:10.960Z,3.70
2023-12-05T12:24:10.974Z,3.72
2023-12-05T12:25:11.010Z,3.72
2023-12-05T12:26:11.012Z,3.70
2023-12-05T12:27:11.068Z,3.74
2023-12-05T12:28:11.078Z,3.77
2023-12-05T12:29:11.103Z,3.75
2023-12-05T12:30:11.115Z,3.75
2023-12-05T12:31:11.142Z,3.71
2023-12-05T12:32:11.204Z,3.72
2023-12-05T12:33:11.278Z,3.74
2023-12-05T12:34:11.240Z,3.64
2023-12-05T12:35:11.244Z,3.62
2023-12-05T12:36:11.792Z,3.67
2023-12-05T12:37:17.925Z,3.71
2023-12-05T12:38:11.315Z,3.70
2023-12-05T12:39:11.346Z,3.68
2023-12-05T12:40:11.460Z,3.63
2023-12-05T12:41:12.817Z,3.71
2023-12-05T12:42:11.620Z,3.67
2023-12-05T12:43:11.451Z,3.70
2023-12-05T12:44:11.468Z,3.67
2023-12-05T12:45:11.497Z,3.67
2023-12-05T12:46:11.527Z,3.63
2023-12-05T12:47:13.020Z,3.50
2023-12-05T12:48:11.652Z,3.53
2023-12-05T12:49:11.690Z,3.42
2023-12-05T12:50:11.622Z,3.59
2023-12-05T12:51:11.662Z,3.59
2023-12-05T12:52:11.825Z,3.57
2023-12-05T12:53:11.685Z,3.42
2023-12-05T12:54:11.717Z,3.46
2023-12-05T12:55:11.735Z,3.49
2023-12-05T12:56:11.773Z,3.56
2023-12-05T12:57:11.789Z,3.56
2023-12-05T12:58:11.848Z,3.62
2023-12-05T12:59:13.379Z,3.63
2023-12-05T13:00:30.989Z,3.67
2023-12-05T13:01:11.952Z,3.70
2023-12-05T13:02:12.019Z,3.70
2023-12-05T13:03:11.956Z,3.59
2023-12-05T13:04:12.110Z,3.60
2023-12-05T13:05:12.054Z,3.63
2023-12-05T13:06:12.033Z,3.74
2023-12-05T13:07:12.106Z,3.71
2023-12-05T13:08:12.060Z,3.75
2023-12-05T13:09:12.086Z,3.75
2023-12-05T13:10:12.183Z,3.71
2023-12-05T13:11:12.163Z,3.75
2023-12-05T13:12:12.355Z,3.75
2023-12-05T13:13:12.184Z,3.70
2023-12-05T13:14:12.209Z,3.71
2023-12-05T13:15:12.882Z,3.72
2023-12-05T13:16:12.312Z,3.46
2023-12-05T13:17:12.284Z,3.41
2023-12-05T13:18:12.468Z,3.41
2023-12-05T13:19:12.429Z,3.42
2023-12-05T13:20:12.366Z,3.33